Time;durP1;ratioP1;P1;durP2;ratioP2;P2;SDS_P1;SDS_P2;PMS_P1;PMS_P2;Temp;Humidity;BMP_temperature;BMP_pressure;BME280_temperature;BME280_humidity;BME280_pressure;Samples;Min_cycle;Max_cycle;Signal;HPM_P1;HPM_P2
2022/07/07 00:00:12;;;;;;;5.07;3.97;;;;;;;21.34;56.46;94661.97;4129418;28;20050;-65
2022/07/07 00:02:14;;;;;;;4.88;4.18;;;;;;;21.31;56.34;94656.28;4141246;28;20054;-65
2022/07/07 00:04:15;;;;;;;6.22;4.40;;;;;;;21.23;56.67;94660.88;4143067;28;20081;-65
2022/07/07 00:06:17;;;;;;;5.57;4.90;;;;;;;21.26;56.73;94655.09;4133131;28;20137;-65
2022/07/07 00:08:19;;;;;;;4.10;3.70;;;;;;;21.30;56.74;94655.47;4139982;28;20184;-64
2022/07/07 00:10:21;;;;;;;5.88;4.30;;;;;;;21.31;56.57;94657.06;4138112;28;20053;-65
2022/07/07 00:12:23;;;;;;;5.38;4.07;;;;;;;21.28;56.84;94662.88;4153554;28;20140;-65
2022/07/07 00:14:25;;;;;;;4.97;4.20;;;;;;;21.24;56.71;94680.34;4139881;28;20046;-65
2022/07/07 00:16:27;;;;;;;4.90;4.40;;;;;;;21.12;56.99;94666.97;4139787;28;20465;-64
2022/07/07 00:18:29;;;;;;;4.88;4.20;;;;;;;21.13;57.17;94671.25;4137773;28;20054;-65
2022/07/07 00:20:31;;;;;;;7.22;4.22;;;;;;;21.11;57.16;94673.34;4144987;28;20042;-66
2022/07/07 00:22:32;;;;;;;4.55;4.15;;;;;;;21.06;57.15;94666.03;4138111;28;20449;-64
2022/07/07 00:24:34;;;;;;;5.40;4.10;;;;;;;21.07;56.96;94672.97;4135738;28;20053;-64
2022/07/07 00:26:36;;;;;;;5.30;4.43;;;;;;;21.05;57.02;94671.56;4131792;28;20058;-65
2022/07/07 00:28:38;;;;;;;5.10;4.07;;;;;;;21.06;57.27;94670.56;4128418;28;20058;-66
2022/07/07 00:30:39;;;;;;;4.22;3.83;;;;;;;21.02;57.22;94672.84;4134598;28;20386;-65
2022/07/07 00:32:41;;;;;;;4.50;4.10;;;;;;;21.05;57.08;94663.59;4136766;28;20065;-65
2022/07/07 00:34:43;;;;;;;4.95;3.75;;;;;;;21.03;57.08;94671.78;4127720;28;20077;-66
2022/07/07 00:36:45;;;;;;;4.75;3.90;;;;;;;21.00;57.21;94666.13;4129756;28;20065;-65
2022/07/07 00:38:47;;;;;;;4.78;4.28;;;;;;;20.97;57.01;94670.03;4128727;28;20617;-65
2022/07/07 00:40:51;;;;;;;4.88;4.07;;;;;;;20.96;57.03;94664.94;4132934;28;20413;-66
2022/07/07 00:42:55;;;;;;;4.78;3.65;;;;;;;20.93;56.86;94674.19;4137764;28;20112;-66
2022/07/07 00:44:56;;;;;;;4.03;3.63;;;;;;;20.86;57.18;94674.28;4139257;28;20053;-66
2022/07/07 00:46:58;;;;;;;6.00;3.75;;;;;;;20.92;56.75;94671.75;4132906;28;20486;-65
2022/07/07 00:49:00;;;;;;;4.15;3.70;;;;;;;20.86;56.83;94655.63;4139558;28;20145;-67
2022/07/07 00:51:08;;;;;;;5.32;3.70;;;;;;;20.90;56.88;94660.50;4133812;28;20045;-65
2022/07/07 00:53:10;;;;;;;7.70;4.40;;;;;;;20.92;56.65;94663.75;4145945;28;20053;-65
2022/07/07 00:55:12;;;;;;;5.53;4.15;;;;;;;20.94;56.58;94667.81;4157100;28;20137;-67
2022/07/07 00:57:14;;;;;;;4.95;4.03;;;;;;;20.98;56.36;94663.66;4130024;28;20340;-64
2022/07/07 00:59:29;;;;;;;4.10;3.70;;;;;;;20.99;56.30;94659.16;4129536;28;20081;-67
2022/07/07 01:01:36;;;;;;;3.40;3.10;;;;;;;20.90;56.20;94665.81;4137566;28;20050;-66
2022/07/07 01:03:38;;;;;;;4.18;3.15;;;;;;;20.93;56.12;94658.22;4144182;28;20050;-66
2022/07/07 01:05:40;;;;;;;4.30;3.65;;;;;;;20.92;56.27;94661.09;4144275;28;20053;-65
2022/07/07 01:07:43;;;;;;;4.68;3.90;;;;;;;20.94;56.03;94667.81;4143582;28;20046;-68
2022/07/07 01:09:45;;;;;;;4.00;3.60;;;;;;;20.90;55.95;94666.63;4145029;28;20115;-65
2022/07/07 01:11:55;;;;;;;4.60;3.53;;;;;;;20.91;55.81;94662.94;4153766;28;20049;-67
2022/07/07 01:13:57;;;;;;;4.80;3.28;;;;;;;20.90;55.77;94668.50;4133344;28;20054;-65
2022/07/07 01:15:59;;;;;;;4.00;3.60;;;;;;;20.88;55.92;94671.38;4130666;28;20386;-65
2022/07/07 01:18:01;;;;;;;3.75;3.35;;;;;;;20.83;55.91;94665.91;4138722;28;20042;-66
2022/07/07 01:20:05;;;;;;;3.63;3.30;;;;;;;20.76;55.81;94670.50;4137287;28;20054;-64
2022/07/07 01:22:12;;;;;;;4.22;3.60;;;;;;;20.77;56.22;94675.59;4140270;28;20054;-66
2022/07/07 01:24:13;;;;;;;7.50;3.63;;;;;;;20.68;56.49;94668.94;4127954;28;20050;-66
2022/07/07 01:26:16;;;;;;;4.50;3.47;;;;;;;20.63;56.13;94671.47;4128965;28;20495;-66
2022/07/07 01:28:18;;;;;;;4.00;3.08;;;;;;;20.68;56.12;94671.63;4128518;28;20129;-65
2022/07/07 01:30:19;;;;;;;5.80;3.30;;;;;;;20.73;55.85;94669.09;4140837;28;20053;-62
2022/07/07 01:32:22;;;;;;;5.00;3.00;;;;;;;20.69;55.87;94669.75;4125855;28;20116;-65
2022/07/07 01:34:24;;;;;;;5.20;3.60;;;;;;;20.68;55.88;94668.16;4141773;28;20413;-65
2022/07/07 01:36:26;;;;;;;4.10;3.35;;;;;;;20.71;55.95;94673.81;4142559;28;20184;-64
2022/07/07 01:38:28;;;;;;;4.85;3.15;;;;;;;20.68;55.54;94671.63;4143571;28;20057;-66
2022/07/07 01:40:30;;;;;;;5.05;2.92;;;;;;;20.75;55.66;94672.34;4144868;28;20105;-65
2022/07/07 01:42:32;;;;;;;4.00;3.15;;;;;;;20.79;55.26;94670.06;4141815;28;20064;-65
2022/07/07 01:44:35;;;;;;;3.20;2.90;;;;;;;20.77;55.43;94667.59;4138598;28;20110;-64
2022/07/07 01:46:36;;;;;;;4.65;2.55;;;;;;;20.72;55.18;94670.13;4135067;28;20088;-65
2022/07/07 01:48:39;;;;;;;5.65;2.90;;;;;;;20.77;55.35;94667.59;4143422;28;20061;-64
2022/07/07 01:50:41;;;;;;;3.53;3.03;;;;;;;20.81;55.08;94668.78;4131801;28;20050;-65
2022/07/07 01:52:43;;;;;;;5.18;3.10;;;;;;;20.80;54.74;94671.66;4130184;28;20080;-64
2022/07/07 01:54:44;;;;;;;3.83;2.85;;;;;;;20.73;54.66;94662.94;4141839;28;20199;-65
2022/07/07 01:56:46;;;;;;;5.30;2.92;;;;;;;20.73;54.62;94666.41;4128663;28;20058;-66
2022/07/07 01:58:48;;;;;;;3.70;2.97;;;;;;;20.72;54.42;94656.81;4135750;28;20057;-64
2022/07/07 02:00:50;;;;;;;3.22;2.92;;;;;;;20.75;54.58;94661.69;4134439;28;20213;-65
2022/07/07 02:02:52;;;;;;;4.20;2.45;;;;;;;20.72;54.31;94664.81;4139978;28;20056;-65
2022/07/07 02:04:54;;;;;;;3.38;2.38;;;;;;;20.71;54.10;94662.38;4142090;28;20117;-66
2022/07/07 02:06:55;;;;;;;2.63;2.42;;;;;;;20.73;54.03;94652.31;4128352;28;20461;-65
2022/07/07 02:08:58;;;;;;;4.32;2.80;;;;;;;20.72;54.05;94662.16;4130904;28;20053;-65
2022/07/07 02:11:16;;;;;;;3.40;2.67;;;;;;;20.59;54.26;94659.66;4127802;28;20490;-65
2022/07/07 02:13:17;;;;;;;3.50;2.45;;;;;;;20.61;54.21;94660.25;4139300;28;20073;-66
2022/07/07 02:15:19;;;;;;;3.72;2.50;;;;;;;20.63;54.15;94660.84;4133596;28;20140;-64
2022/07/07 02:17:21;;;;;;;3.28;2.58;;;;;;;20.63;54.08;94668.81;4137611;28;20046;-65
2022/07/07 02:19:23;;;;;;;3.78;2.13;;;;;;;20.56;54.05;94665.38;4147209;28;20358;-64
2022/07/07 02:21:25;;;;;;;3.30;2.90;;;;;;;20.59;54.10;94655.13;4147340;28;20050;-65
2022/07/07 02:23:27;;;;;;;4.47;2.70;;;;;;;20.56;54.23;94654.72;4145433;28;20065;-65
2022/07/07 02:25:30;;;;;;;3.10;2.30;;;;;;;20.54;53.98;94665.59;4134536;28;20049;-64
2022/07/07 02:27:31;;;;;;;3.20;2.30;;;;;;;20.56;53.89;94666.16;4147208;28;20049;-67
2022/07/07 02:29:33;;;;;;;5.53;2.45;;;;;;;20.44;54.21;94649.34;4138314;28;20056;-67
2022/07/07 02:31:35;;;;;;;3.20;2.50;;;;;;;20.43;54.15;94658.34;4131043;28;20190;-66
2022/07/07 02:33:37;;;;;;;3.25;2.38;;;;;;;20.32;54.37;94665.19;4143622;28;20054;-68
2022/07/07 02:35:39;;;;;;;2.50;2.08;;;;;;;20.30;54.69;94664.59;4135166;28;20052;-66
2022/07/07 02:37:41;;;;;;;4.18;2.53;;;;;;;20.27;54.52;94657.06;4140292;28;20054;-65
2022/07/07 02:39:43;;;;;;;6.38;2.25;;;;;;;20.36;54.25;94665.59;4140829;28;20053;-65
2022/07/07 02:41:45;;;;;;;5.45;2.33;;;;;;;20.36;54.28;94654.94;4135132;28;20109;-64
2022/07/07 02:43:47;;;;;;;3.47;2.42;;;;;;;20.39;54.17;94659.81;4143026;28;20056;-67
2022/07/07 02:45:50;;;;;;;3.03;2.28;;;;;;;20.39;54.14;94662.47;4130545;28;20058;-64
2022/07/07 02:47:52;;;;;;;3.95;2.22;;;;;;;20.44;53.96;94659.97;4129238;28;20050;-65
2022/07/07 02:49:54;;;;;;;4.18;2.10;;;;;;;20.40;53.82;94662.25;4130657;28;20113;-65
2022/07/07 02:51:56;;;;;;;6.25;2.60;;;;;;;20.34;54.05;94657.81;4140443;28;20042;-64
2022/07/07 02:53:58;;;;;;;2.40;2.10;;;;;;;20.40;53.97;94664.91;4135398;28;20120;-66
2022/07/07 02:56:01;;;;;;;2.30;2.10;;;;;;;20.37;54.05;94667.19;4145017;28;20061;-68
2022/07/07 02:58:04;;;;;;;2.63;2.08;;;;;;;20.36;53.88;94661.06;4142654;28;20057;-66
2022/07/07 03:00:07;;;;;;;4.57;2.33;;;;;;;20.32;54.19;94659.88;4137668;28;20050;-67
2022/07/07 03:02:09;;;;;;;4.28;2.85;;;;;;;20.38;53.84;94668.84;4137545;28;20186;-65
2022/07/07 03:04:11;;;;;;;3.30;2.53;;;;;;;20.34;53.83;94657.00;4129493;28;20089;-65
2022/07/07 03:06:13;;;;;;;5.88;2.38;;;;;;;20.28;54.01;94668.53;4129834;28;20057;-64
2022/07/07 03:08:15;;;;;;;2.60;2.13;;;;;;;20.24;53.97;94663.66;4134887;28;20060;-66
2022/07/07 03:10:17;;;;;;;2.75;2.03;;;;;;;20.29;53.77;94673.63;4130722;28;20506;-65
2022/07/07 03:12:19;;;;;;;4.05;2.40;;;;;;;20.18;54.03;94674.38;4140292;28;20046;-64
2022/07/07 03:14:21;;;;;;;3.55;2.10;;;;;;;20.20;53.96;94666.97;4146129;28;20521;-65
2022/07/07 03:16:22;;;;;;;2.22;1.98;;;;;;;20.22;53.89;94668.38;4144947;28;20049;-65
2022/07/07 03:18:25;;;;;;;3.03;2.17;;;;;;;20.21;53.89;94679.22;4131136;28;20081;-64
2022/07/07 03:20:27;;;;;;;3.80;2.05;;;;;;;20.17;53.98;94683.38;4144733;28;20085;-65
2022/07/07 03:22:29;;;;;;;4.18;2.30;;;;;;;20.22;53.96;94675.56;4145534;28;20058;-64
2022/07/07 03:24:31;;;;;;;3.00;2.25;;;;;;;20.15;54.02;94674.78;4137060;28;20085;-65
2022/07/07 03:26:33;;;;;;;4.20;2.22;;;;;;;20.18;53.71;94672.50;4130374;28;20406;-66
2022/07/07 03:28:35;;;;;;;5.28;2.42;;;;;;;20.23;53.88;94669.19;4141896;28;20485;-65
2022/07/07 03:30:37;;;;;;;2.47;2.22;;;;;;;20.22;53.90;94675.56;4134997;28;20111;-64
2022/07/07 03:32:39;;;;;;;5.40;2.45;;;;;;;20.22;53.86;94670.25;4144661;28;20074;-65
2022/07/07 03:34:41;;;;;;;3.28;1.92;;;;;;;20.27;53.82;94674.91;4146686;28;20108;-65
2022/07/07 03:36:42;;;;;;;2.42;2.08;;;;;;;20.31;53.57;94674.22;4133482;28;20054;-65
2022/07/07 03:38:44;;;;;;;2.72;2.00;;;;;;;20.32;53.28;94672.38;4144865;28;20054;-63
2022/07/07 03:40:46;;;;;;;3.47;2.20;;;;;;;20.29;53.34;94676.28;4142213;28;20183;-66
2022/07/07 03:42:48;;;;;;;3.60;2.15;;;;;;;20.32;53.28;94678.50;4134211;28;20100;-65
2022/07/07 03:44:50;;;;;;;5.03;2.10;;;;;;;20.32;53.21;94675.84;4139441;28;20170;-65
2022/07/07 03:46:52;;;;;;;2.60;1.90;;;;;;;20.40;53.12;94685.41;4139474;28;20073;-63
2022/07/07 03:48:54;;;;;;;3.28;1.92;;;;;;;20.42;53.24;94678.00;4132278;28;20406;-64
2022/07/07 03:50:56;;;;;;;5.22;1.95;;;;;;;20.48;52.94;94671.81;4130853;28;20165;-64
2022/07/07 03:52:59;;;;;;;4.53;2.00;;;;;;;20.49;52.82;94683.25;4142096;28;20283;-64
2022/07/07 03:55:01;;;;;;;2.85;1.98;;;;;;;20.50;52.77;94682.22;4129965;28;20046;-65
2022/07/07 03:57:03;;;;;;;3.80;2.28;;;;;;;20.41;53.06;94674.53;4135566;28;20132;-64
2022/07/07 03:59:05;;;;;;;4.50;2.20;;;;;;;20.49;53.08;94678.75;4141775;28;20046;-65
2022/07/07 04:01:07;;;;;;;2.67;1.88;;;;;;;20.52;53.00;94680.16;4144534;28;20081;-66
2022/07/07 04:03:09;;;;;;;2.83;2.25;;;;;;;20.59;52.75;94676.41;4128406;28;20081;-65
2022/07/07 04:05:11;;;;;;;5.55;2.28;;;;;;;20.59;52.62;94691.59;4136427;28;20053;-66
2022/07/07 04:07:13;;;;;;;2.75;1.70;;;;;;;20.63;52.37;94685.59;4145956;28;20061;-65
2022/07/07 04:09:15;;;;;;;2.50;1.80;;;;;;;20.77;52.40;94683.56;4133885;28;20054;-65
2022/07/07 04:11:17;;;;;;;3.70;2.17;;;;;;;20.83;51.93;94672.03;4143769;28;20084;-64
2022/07/07 04:13:20;;;;;;;2.65;2.10;;;;;;;20.85;51.99;94675.28;4133403;28;20490;-65
2022/07/07 04:15:22;;;;;;;4.00;2.13;;;;;;;20.96;51.80;94687.03;4139372;28;20062;-65
2022/07/07 04:17:24;;;;;;;4.43;2.25;;;;;;;21.02;51.28;94680.81;4128579;28;20050;-65
2022/07/07 04:19:26;;;;;;;2.60;1.90;;;;;;;21.02;51.23;94682.69;4137731;28;20081;-64
2022/07/07 04:21:27;;;;;;;3.22;1.77;;;;;;;21.02;51.00;94675.50;4145746;28;20054;-65
2022/07/07 04:23:29;;;;;;;2.65;2.10;;;;;;;21.08;51.06;94684.47;4131383;28;20079;-65
2022/07/07 04:25:32;;;;;;;3.58;2.10;;;;;;;21.02;50.92;94688.81;4141220;28;20080;-64
2022/07/07 04:27:33;;;;;;;3.58;2.00;;;;;;;21.04;50.85;94696.59;4128626;28;20060;-68
2022/07/07 04:29:36;;;;;;;3.15;1.77;;;;;;;20.95;51.31;94689.91;4129835;28;20054;-66
2022/07/07 04:31:43;;;;;;;2.28;1.70;;;;;;;20.97;51.20;94688.69;4128456;28;20053;-65
2022/07/07 04:33:46;;;;;;;2.45;1.83;;;;;;;21.12;50.74;94698.13;4140395;28;20088;-66
2022/07/07 04:35:48;;;;;;;8.48;1.90;;;;;;;21.14;50.90;94696.84;4134967;28;20089;-63
2022/07/07 04:37:50;;;;;;;2.40;2.08;;;;;;;21.24;50.71;94702.47;4137412;28;20105;-65
2022/07/07 04:39:52;;;;;;;3.10;1.92;;;;;;;21.30;50.35;94695.44;4140216;28;20054;-65
2022/07/07 04:41:54;;;;;;;3.30;2.00;;;;;;;21.36;50.52;94691.88;4131672;28;20129;-64
2022/07/07 04:43:56;;;;;;;2.20;1.67;;;;;;;21.48;50.02;94694.59;4142054;28;20138;-65
2022/07/07 04:45:58;;;;;;;2.47;2.05;;;;;;;21.63;49.98;94697.63;4131246;28;20062;-66
2022/07/07 04:48:00;;;;;;;3.83;1.73;;;;;;;21.71;50.04;94698.38;4144190;28;20054;-66
2022/07/07 04:50:02;;;;;;;4.18;1.83;;;;;;;21.72;49.99;94694.66;4137103;28;20149;-65
2022/07/07 04:52:05;;;;;;;2.90;1.98;;;;;;;21.78;49.65;94699.09;4129310;28;20086;-65
2022/07/07 04:54:07;;;;;;;3.10;1.83;;;;;;;21.86;49.47;94701.41;4127771;28;20058;-64
2022/07/07 04:56:09;;;;;;;4.50;2.03;;;;;;;21.89;49.48;94700.94;4144423;28;20770;-66
2022/07/07 04:58:11;;;;;;;8.45;2.00;;;;;;;21.88;49.61;94697.47;4144849;28;20046;-66
2022/07/07 05:00:18;;;;;;;4.05;2.03;;;;;;;22.01;49.26;94699.13;4144906;28;20077;-66
2022/07/07 05:02:20;;;;;;;3.10;2.20;;;;;;;22.03;49.50;94697.03;4144624;28;20050;-66
2022/07/07 05:04:22;;;;;;;2.97;1.90;;;;;;;22.04;49.10;94693.31;4144284;28;20077;-65
2022/07/07 05:06:23;;;;;;;3.05;1.67;;;;;;;21.95;49.31;94694.69;4144018;28;20046;-66
2022/07/07 05:08:27;;;;;;;3.95;2.10;;;;;;;21.91;49.11;94688.19;4139486;28;20145;-66
2022/07/07 05:10:29;;;;;;;;;;;;;;;21.88;49.49;94694.00;4137429;28;20057;-66
2022/07/07 05:12:30;;;;;;;2.60;2.20;;;;;;;21.89;49.47;94692.94;4133212;28;19932;-66
2022/07/07 05:14:32;;;;;;;3.40;2.47;;;;;;;21.87;49.46;94692.38;4142543;28;20050;-65
2022/07/07 05:16:34;;;;;;;3.13;1.92;;;;;;;21.91;49.38;94690.06;4141975;28;20133;-64
2022/07/07 05:18:36;;;;;;;3.78;1.88;;;;;;;21.95;49.41;94689.38;4131038;28;20100;-65
2022/07/07 05:20:44;;;;;;;3.65;2.00;;;;;;;21.93;49.20;94690.66;4144813;28;20053;-67
2022/07/07 05:22:46;;;;;;;2.72;2.17;;;;;;;21.97;49.01;94689.16;4143047;28;20048;-67
2022/07/07 05:24:48;;;;;;;5.00;2.33;;;;;;;22.13;48.92;94687.66;4129161;28;20108;-65
2022/07/07 05:26:49;;;;;;;10.18;1.98;;;;;;;21.99;49.33;94682.53;4130834;28;20104;-65
2022/07/07 05:28:51;;;;;;;3.45;2.03;;;;;;;21.82;50.01;94692.25;4138793;28;20062;-65
2022/07/07 05:30:53;;;;;;;2.85;1.92;;;;;;;22.02;49.79;94679.41;4135518;28;20054;-64
2022/07/07 05:32:55;;;;;;;3.38;1.80;;;;;;;22.06;49.48;94688.56;4133743;28;20566;-66
2022/07/07 05:34:57;;;;;;;2.97;2.10;;;;;;;21.92;49.31;94705.00;4128524;28;20065;-64
2022/07/07 05:36:59;;;;;;;4.70;2.20;;;;;;;21.83;49.96;94696.53;4140178;28;20050;-65
2022/07/07 05:39:00;;;;;;;4.50;2.00;;;;;;;21.88;49.46;94694.81;4133487;28;20096;-66
2022/07/07 05:41:02;;;;;;;3.50;1.98;;;;;;;22.02;49.62;94695.41;4137899;28;20050;-65
2022/07/07 05:43:04;;;;;;;3.90;2.30;;;;;;;21.57;51.01;94700.41;4128245;28;20060;-65
2022/07/07 05:45:07;;;;;;;5.28;2.20;;;;;;;21.63;51.06;94697.63;4133128;28;20524;-65
2022/07/07 05:47:09;;;;;;;5.05;2.60;;;;;;;21.84;50.68;94698.16;4134083;28;20470;-65
2022/07/07 05:49:11;;;;;;;2.60;1.95;;;;;;;21.94;49.90;94702.91;4128051;28;20133;-66
2022/07/07 05:51:13;;;;;;;2.65;2.10;;;;;;;21.97;49.43;94695.28;4144295;28;20146;-63
2022/07/07 05:53:15;;;;;;;5.65;2.75;;;;;;;21.95;50.38;94704.56;4139933;28;20050;-65
2022/07/07 05:55:17;;;;;;;4.80;2.30;;;;;;;21.57;50.51;94698.56;4140931;28;20062;-62
2022/07/07 05:57:19;;;;;;;3.67;2.40;;;;;;;21.39;51.67;94707.38;4131738;28;20136;-69
2022/07/07 05:59:20;;;;;;;3.92;2.15;;;;;;;21.58;51.49;94707.38;4130657;28;20509;-65
2022/07/07 06:01:28;;;;;;;4.13;2.60;;;;;;;21.33;52.51;94718.13;4131371;28;20050;-66
2022/07/07 06:03:30;;;;;;;4.38;2.53;;;;;;;21.16;53.26;94704.63;4137032;28;20572;-66
2022/07/07 06:05:33;;;;;;;3.97;2.40;;;;;;;21.09;54.03;94702.03;4135306;28;20050;-67
2022/07/07 06:07:35;;;;;;;5.07;2.53;;;;;;;21.42;52.82;94695.50;4131641;28;20287;-69
2022/07/07 06:09:37;;;;;;;4.45;3.42;;;;;;;21.09;53.55;94704.72;4135314;28;20049;-67
2022/07/07 06:11:38;;;;;;;5.80;2.83;;;;;;;20.85;54.29;94709.09;4132845;28;20510;-65
2022/07/07 06:13:40;;;;;;;3.80;3.00;;;;;;;21.06;53.83;94713.16;4133788;28;20530;-66
2022/07/07 06:15:42;;;;;;;4.60;3.13;;;;;;;21.24;53.05;94710.44;4136258;28;20441;-65
2022/07/07 06:17:44;;;;;;;5.82;3.17;;;;;;;21.01;53.48;94707.69;4143356;28;20061;-65
2022/07/07 06:20:06;;;;;;;5.45;3.38;;;;;;;21.26;52.83;94705.72;4147196;28;20054;-65
2022/07/07 06:22:08;;;;;;;5.47;3.87;;;;;;;21.38;52.15;94703.13;4143319;28;20467;-66
2022/07/07 06:24:10;;;;;;;3.72;2.75;;;;;;;21.64;51.22;94717.94;4136963;28;20848;-66
2022/07/07 06:26:12;;;;;;;9.93;2.42;;;;;;;21.45;51.33;94727.03;4146820;28;20424;-66
2022/07/07 06:28:14;;;;;;;3.85;2.53;;;;;;;21.25;51.93;94714.75;4146781;28;20050;-67
2022/07/07 06:30:16;;;;;;;4.47;2.75;;;;;;;21.41;50.62;94716.00;4144214;28;21300;-65
2022/07/07 06:32:18;;;;;;;5.63;2.60;;;;;;;21.61;51.50;94710.38;4131179;28;20069;-65
2022/07/07 06:34:19;;;;;;;5.95;3.20;;;;;;;21.82;50.51;94710.91;4138869;28;20042;-67
2022/07/07 06:36:21;;;;;;;4.05;2.78;;;;;;;21.87;50.72;94719.84;4130981;28;20046;-65
2022/07/07 06:38:23;;;;;;;5.00;2.67;;;;;;;22.00;50.55;94710.81;4130934;28;20109;-67
2022/07/07 06:40:25;;;;;;;4.63;2.55;;;;;;;22.12;49.59;94704.72;4132332;28;20058;-66
2022/07/07 06:42:27;;;;;;;5.47;2.35;;;;;;;22.14;49.32;94706.09;4130716;28;20054;-66
2022/07/07 06:44:30;;;;;;;4.30;2.50;;;;;;;22.06;49.50;94712.56;4143176;28;20050;-65
2022/07/07 06:46:32;;;;;;;;;;;;;;;22.03;49.41;94717.56;4138852;28;20516;-68
2022/07/07 06:48:34;;;;;;;5.88;2.60;;;;;;;22.07;49.39;94708.88;4144387;28;19928;-67
2022/07/07 06:50:36;;;;;;;5.72;2.30;;;;;;;22.22;49.54;94723.59;4135090;28;20415;-65
2022/07/07 06:52:38;;;;;;;3.97;2.17;;;;;;;22.25;49.08;94721.31;4145446;28;20521;-66
2022/07/07 06:54:40;;;;;;;5.25;2.78;;;;;;;22.47;49.20;94715.41;4147474;28;20481;-66
2022/07/07 06:56:42;;;;;;;3.85;2.17;;;;;;;22.72;48.60;94706.34;4146858;28;20072;-64
2022/07/07 06:58:44;;;;;;;3.70;2.80;;;;;;;22.56;48.23;94727.34;4137393;28;20470;-63
2022/07/07 07:00:45;;;;;;;5.40;3.05;;;;;;;22.27;49.12;94711.22;4142929;28;20567;-64
2022/07/07 07:02:48;;;;;;;2.92;2.42;;;;;;;22.48;49.03;94717.84;4131180;28;20461;-66
2022/07/07 07:04:51;;;;;;;;;;;;;;;22.52;48.85;94717.38;4143754;28;20073;-69
2022/07/07 07:06:53;;;;;;;4.28;2.50;;;;;;;22.72;48.76;94714.38;4130824;28;19921;-67
2022/07/07 07:08:56;;;;;;;3.60;2.78;;;;;;;22.74;48.75;94706.94;4130559;28;20046;-67
2022/07/07 07:10:58;;;;;;;4.30;2.80;;;;;;;22.85;47.98;94708.75;4113274;28;20070;-65
2022/07/07 07:13:00;;;;;;;5.53;3.13;;;;;;;22.85;48.17;94712.25;4143221;28;20046;-67
2022/07/07 07:15:02;;;;;;;3.97;2.55;;;;;;;22.97;48.25;94714.06;4133955;28;20070;-64
2022/07/07 07:17:04;;;;;;;3.08;2.17;;;;;;;22.98;47.48;94713.03;4146602;28;20049;-65
2022/07/07 07:19:06;;;;;;;5.90;2.42;;;;;;;23.19;47.47;94709.75;4143694;28;20157;-66
2022/07/07 07:21:08;;;;;;;6.05;3.35;;;;;;;23.08;48.28;94718.59;4136307;28;20061;-65
2022/07/07 07:23:10;;;;;;;4.20;3.15;;;;;;;22.90;48.32;94712.34;4143760;28;20058;-64
2022/07/07 07:25:12;;;;;;;8.15;4.78;;;;;;;22.97;48.69;94712.19;4143327;28;20054;-65
2022/07/07 07:27:14;;;;;;;7.72;4.07;;;;;;;23.07;48.87;94708.97;4135025;28;20068;-66
2022/07/07 07:29:16;;;;;;;9.75;5.43;;;;;;;23.33;48.09;94712.94;4136949;28;20057;-66
2022/07/07 07:31:17;;;;;;;3.05;2.50;;;;;;;23.44;47.51;94722.78;4131822;28;20482;-65
2022/07/07 07:33:19;;;;;;;5.78;2.30;;;;;;;23.38;47.26;94718.41;4128512;28;20070;-64
2022/07/07 07:35:21;;;;;;;6.65;3.03;;;;;;;23.38;47.37;94715.75;4128583;28;20110;-66
2022/07/07 07:37:23;;;;;;;7.13;3.40;;;;;;;23.35;47.03;94715.41;4129979;28;20458;-67
2022/07/07 07:39:25;;;;;;;7.88;3.25;;;;;;;23.33;47.06;94720.16;4129976;28;20077;-65
2022/07/07 07:41:27;;;;;;;4.60;2.20;;;;;;;23.41;46.24;94717.91;4132596;28;20521;-66
2022/07/07 07:43:29;;;;;;;10.43;4.13;;;;;;;22.99;48.10;94711.97;4149231;28;20049;-66
2022/07/07 07:45:32;;;;;;;7.43;3.92;;;;;;;22.83;47.88;94702.84;4133496;28;20457;-65
2022/07/07 07:47:33;;;;;;;5.30;3.10;;;;;;;22.83;47.84;94711.66;4129539;28;20050;-65
2022/07/07 07:49:35;;;;;;;5.68;3.15;;;;;;;22.93;48.01;94697.72;4145206;28;20102;-66
2022/07/07 07:51:37;;;;;;;6.25;2.53;;;;;;;23.31;47.13;94699.81;4138920;28;20054;-66
2022/07/07 07:53:39;;;;;;;4.25;2.45;;;;;;;23.58;45.76;94711.81;4130200;28;20053;-64
2022/07/07 07:55:41;;;;;;;2.50;2.20;;;;;;;23.65;45.61;94707.13;4142119;28;20054;-67
2022/07/07 07:57:43;;;;;;;5.22;2.22;;;;;;;23.58;45.10;94712.63;4137343;28;20069;-65
2022/07/07 07:59:45;;;;;;;11.30;3.30;;;;;;;;;;4133621;28;20409;-66
2022/07/07 08:01:47;;;;;;;6.70;4.75;;;;;;;23.38;46.37;94718.41;4146153;28;20050;-67
2022/07/07 08:03:49;;;;;;;5.88;2.67;;;;;;;23.42;44.47;94708.84;4135291;28;20050;-67
2022/07/07 08:05:51;;;;;;;5.85;2.28;;;;;;;23.39;43.76;94708.53;4129984;28;20137;-67
2022/07/07 08:07:52;;;;;;;4.57;2.20;;;;;;;23.49;44.06;94719.41;4129966;28;20054;-66
2022/07/07 08:09:54;;;;;;;3.97;2.50;;;;;;;23.75;44.15;94704.63;4145818;28;20054;-66
2022/07/07 08:11:56;;;;;;;4.80;2.10;;;;;;;24.05;44.16;94708.91;4145438;28;20125;-65
2022/07/07 08:13:58;;;;;;;7.28;2.50;;;;;;;23.82;43.35;94704.50;4145625;28;20846;-66
2022/07/07 08:16:00;;;;;;;3.88;2.08;;;;;;;23.77;44.39;94712.44;4133160;28;20054;-65
2022/07/07 08:18:02;;;;;;;3.58;2.03;;;;;;;23.45;42.48;94708.38;4130581;28;20058;-64
2022/07/07 08:20:05;;;;;;;4.22;2.25;;;;;;;23.37;43.34;94716.78;4143903;28;20050;-67
2022/07/07 08:22:07;;;;;;;3.13;2.20;;;;;;;23.61;43.06;94717.47;4133809;28;20049;-66
2022/07/07 08:24:09;;;;;;;3.28;2.00;;;;;;;23.90;42.58;94715.63;4143327;28;20053;-66
2022/07/07 08:26:12;;;;;;;3.03;1.90;;;;;;;23.89;42.70;94707.84;4135814;28;20112;-66
2022/07/07 08:28:13;;;;;;;3.13;1.90;;;;;;;23.90;43.34;94709.47;4129068;28;20053;-65
2022/07/07 08:30:15;;;;;;;2.72;2.08;;;;;;;24.08;42.07;94711.91;4141720;28;20652;-65
2022/07/07 08:32:17;;;;;;;4.70;2.10;;;;;;;24.24;41.84;94707.63;4133022;28;20128;-67
2022/07/07 08:34:19;;;;;;;3.05;2.33;;;;;;;24.67;41.32;94703.44;4135616;28;20564;-67
2022/07/07 08:36:21;;;;;;;3.15;2.15;;;;;;;24.80;41.35;94712.16;4128872;28;20478;-65
2022/07/07 08:38:23;;;;;;;3.05;2.13;;;;;;;24.72;41.54;94713.41;4141133;28;20143;-66
2022/07/07 08:40:25;;;;;;;7.18;2.17;;;;;;;24.68;42.32;94718.44;4131759;28;20484;-65
2022/07/07 08:42:32;;;;;;;5.10;2.25;;;;;;;24.57;42.54;94726.59;4130375;28;20058;-65
2022/07/07 08:44:34;;;;;;;4.32;2.17;;;;;;;24.75;41.78;94720.16;4145905;28;20046;-67
2022/07/07 08:46:36;;;;;;;4.90;2.60;;;;;;;24.73;41.99;94713.16;4143957;28;20456;-65
2022/07/07 08:48:38;;;;;;;3.33;2.47;;;;;;;24.69;42.08;94722.78;4144017;28;20053;-67
2022/07/07 08:50:40;;;;;;;3.75;2.30;;;;;;;24.67;42.11;94716.00;4132584;28;20050;-66
2022/07/07 08:52:43;;;;;;;3.70;1.97;;;;;;;24.96;41.54;94711.31;4129085;28;20057;-66
2022/07/07 08:54:46;;;;;;;4.07;1.98;;;;;;;24.91;41.78;94714.75;4139938;28;20288;-64
2022/07/07 08:56:48;;;;;;;2.70;2.20;;;;;;;24.32;42.98;94717.09;4128192;28;20509;-66
2022/07/07 08:58:50;;;;;;;6.43;2.50;;;;;;;24.26;43.39;94723.41;4128734;28;20054;-65
2022/07/07 09:01:08;;;;;;;5.45;1.92;;;;;;;24.53;42.85;94713.69;4142296;28;20058;-68
2022/07/07 09:03:10;;;;;;;3.95;2.28;;;;;;;24.85;42.34;94717.63;4139968;28;20065;-66
2022/07/07 09:05:12;;;;;;;5.32;2.17;;;;;;;25.01;41.29;94711.38;4129077;28;20138;-67
2022/07/07 09:07:14;;;;;;;5.28;2.20;;;;;;;25.38;41.07;94700.03;4128413;28;20080;-65
2022/07/07 09:09:27;;;;;;;4.72;2.00;;;;;;;25.73;39.87;94713.03;4127681;28;20046;-66
2022/07/07 09:11:31;;;;;;;6.28;1.88;;;;;;;26.01;39.91;94699.63;4129269;28;20547;-65
2022/07/07 09:13:33;;;;;;;2.00;1.70;;;;;;;26.26;39.77;94688.25;4128371;28;20054;-66
2022/07/07 09:15:39;;;;;;;3.05;2.10;;;;;;;26.50;39.37;94705.63;4128236;28;20057;-65
2022/07/07 09:17:41;;;;;;;2.97;1.98;;;;;;;26.41;39.61;94696.41;4137516;28;20572;-66
2022/07/07 09:19:44;;;;;;;2.42;1.85;;;;;;;26.32;39.76;94700.66;4144875;28;20053;-67
2022/07/07 09:21:47;;;;;;;3.65;1.98;;;;;;;26.12;39.91;94699.44;4140879;28;20054;-66
2022/07/07 09:23:53;;;;;;;5.28;2.05;;;;;;;25.90;40.23;94702.22;4128191;28;20046;-65
2022/07/07 09:25:55;;;;;;;2.90;1.92;;;;;;;25.84;40.64;94697.84;4136940;28;20444;-66
2022/07/07 09:28:03;;;;;;;2.90;2.20;;;;;;;26.06;40.99;94696.97;4133145;28;20054;-66
2022/07/07 09:30:05;;;;;;;5.75;2.20;;;;;;;26.26;40.46;94699.00;4127870;28;20604;-66
2022/07/07 09:32:08;;;;;;;4.07;2.70;;;;;;;26.04;40.77;94707.97;4131407;28;20120;-67
2022/07/07 09:34:12;;;;;;;2.97;2.15;;;;;;;25.56;41.16;94703.47;4143567;28;20084;-68
2022/07/07 09:38:41;;;;;;;4.63;2.10;;;;;;;25.91;40.93;94694.97;4142910;28;20137;-66